KELY/ELY METAR and TAF weather

Enter ICAO airport designator
Station Type Date Time Source
KELY METAR 2021/07/29 18:53 UTC NOAA

KELY 291853Z AUTO 00000KT 10SM FEW110 23/11 A3032 RMK AO2 SLP162 T02330111


Station Type Date Time Source
KELY Decoded METAR 2021/07/29 18:53 UTC NOAA

ELY AIRPORT (YELLAND FIELD), NV, United States (KELY) 39-18N 114-51W 1906M
Jul 29, 2021 - 02:53 PM EDT / 2021.07.29 1853 UTC
Wind: Calm:0
Visibility: 10 mile(s):0
Sky conditions: mostly clear
Temperature: 73.9 F (23.3 C)
Dew Point: 52.0 F (11.1 C)
Relative Humidity: 46%
Pressure (altimeter): 30.32 in. Hg (1026 hPa)
ob: KELY 291853Z AUTO 00000KT 10SM FEW110 23/11 A3032 RMK AO2 SLP162 T02330111
cycle: 19

Station Type Date Time Source
KELY TAF 2021/07/29 18:34 UTC NOAA

TAF KELY 291732Z 2918/3018 VRB04KT P6SM SCT150
FM292000 08008KT P6SM VCTS SCT100 BKN120CB OVC250
TEMPO 2922/3002 4SM -TSRA SCT050 BKN080CB OVC250
FM300300 15008KT P6SM VCSH BKN100
FM301000 16005KT P6SM BKN100

Example: see airport list